createdAt,value
2016-11-14T00:00:08.880Z,99.99
2016-11-14T00:01:08.531Z,99.99
2016-11-14T00:02:08.580Z,99.99
2016-11-14T00:03:09.223Z,99.99
2016-11-14T00:04:08.539Z,99.99
2016-11-14T00:05:08.740Z,99.99
2016-11-14T00:06:08.712Z,99.99
2016-11-14T00:07:09.115Z,99.99
2016-11-14T00:08:08.669Z,99.99
2016-11-14T00:09:08.318Z,99.99
2016-11-14T00:10:08.386Z,99.99
2016-11-14T00:11:08.583Z,99.99
2016-11-14T00:12:08.981Z,99.99
2016-11-14T00:13:08.941Z,99.99
2016-11-14T00:14:08.512Z,99.99
2016-11-14T00:15:08.884Z,99.99
2016-11-14T00:16:08.852Z,99.99
2016-11-14T00:17:08.477Z,99.99
2016-11-14T00:18:08.817Z,99.99
2016-11-14T00:19:08.631Z,99.99
2016-11-14T00:20:08.013Z,99.99
2016-11-14T00:21:07.990Z,99.99
2016-11-14T00:22:08.686Z,99.99
2016-11-14T00:23:08.046Z,99.99
2016-11-14T00:24:08.640Z,99.99
2016-11-14T00:25:08.622Z,99.99
2016-11-14T00:26:08.585Z,99.99
2016-11-14T00:27:07.910Z,99.99
2016-11-14T00:28:08.381Z,99.99
2016-11-14T00:29:08.502Z,99.99
2016-11-14T00:30:07.836Z,99.99
2016-11-14T00:31:08.335Z,99.99
2016-11-14T00:32:08.410Z,99.99
2016-11-14T00:33:08.403Z,99.99
2016-11-14T00:34:07.640Z,99.99
2016-11-14T00:35:08.340Z,99.99
2016-11-14T00:36:08.337Z,99.99
2016-11-14T00:37:08.175Z,99.99
2016-11-14T00:38:08.278Z,99.99
2016-11-14T00:39:07.839Z,99.99
2016-11-14T00:40:07.559Z,99.99
2016-11-14T00:41:07.770Z,99.99
2016-11-14T00:42:07.742Z,99.99
2016-11-14T00:43:07.489Z,99.99
2016-11-14T00:44:07.455Z,99.99
2016-11-14T00:45:08.070Z,99.99
2016-11-14T00:46:07.392Z,99.99
2016-11-14T00:47:08.031Z,99.99
2016-11-14T00:48:08.013Z,99.99
2016-11-14T00:49:07.964Z,99.99
2016-11-14T00:50:07.799Z,99.99
2016-11-14T00:51:07.933Z,99.99
2016-11-14T00:52:07.484Z,99.99
2016-11-14T00:53:07.844Z,99.99
2016-11-14T00:54:07.176Z,99.99
2016-11-14T00:55:07.830Z,99.99
2016-11-14T00:56:07.367Z,99.99
2016-11-14T00:57:07.335Z,99.99
2016-11-14T00:58:07.304Z,99.99
2016-11-14T00:59:07.691Z,99.99
2016-11-14T01:00:07.731Z,99.99
2016-11-14T01:01:06.925Z,99.99
2016-11-14T01:02:07.641Z,99.99
2016-11-14T01:03:06.944Z,99.99
2016-11-14T01:04:06.835Z,99.99
2016-11-14T01:05:07.135Z,99.99
2016-11-14T01:06:07.524Z,99.99
2016-11-14T01:07:07.074Z,99.99
2016-11-14T01:08:06.805Z,99.99
2016-11-14T01:09:07.413Z,99.99
2016-11-14T01:10:06.981Z,99.99
2016-11-14T01:11:07.375Z,99.99
2016-11-14T01:12:07.327Z,99.99
2016-11-14T01:13:07.310Z,99.99
2016-11-14T01:14:06.566Z,99.99
2016-11-14T01:15:07.265Z,99.99
2016-11-14T01:16:06.502Z,99.99
2016-11-14T01:17:06.471Z,99.99
2016-11-14T01:18:07.176Z,99.99
2016-11-14T01:19:07.138Z,99.99
2016-11-14T01:20:06.463Z,99.99
2016-11-14T01:21:06.688Z,99.99
2016-11-14T01:22:06.666Z,99.99
2016-11-14T01:23:06.628Z,99.99
2016-11-14T01:24:06.852Z,99.99
2016-11-14T01:25:06.325Z,99.99
2016-11-14T01:26:06.955Z,99.99
2016-11-14T01:27:06.944Z,99.99
2016-11-14T01:28:06.254Z,99.99
2016-11-14T01:29:06.175Z,99.99
2016-11-14T01:30:06.845Z,99.99
2016-11-14T01:31:06.442Z,99.99
2016-11-14T01:32:06.060Z,99.99
2016-11-14T01:33:06.765Z,99.99
2016-11-14T01:34:06.753Z,99.99
2016-11-14T01:35:06.302Z,99.99
2016-11-14T01:36:06.522Z,99.99
2016-11-14T01:37:06.238Z,99.99
2016-11-14T01:38:06.635Z,99.99
2016-11-14T01:39:05.936Z,99.99
2016-11-14T01:40:06.566Z,99.99
2016-11-14T01:41:05.886Z,99.99
2016-11-14T01:42:06.508Z,99.99
2016-11-14T01:43:06.497Z,99.99
2016-11-14T01:44:06.452Z,99.99
2016-11-14T01:45:06.021Z,99.99
2016-11-14T01:46:05.749Z,99.99
2016-11-14T01:47:05.964Z,99.99
2016-11-14T01:48:05.703Z,99.99
2016-11-14T01:49:05.589Z,99.99
2016-11-14T01:50:06.286Z,99.99
2016-11-14T01:51:05.613Z,99.99
2016-11-14T01:52:05.924Z,99.99
2016-11-14T01:53:06.195Z,99.99
2016-11-14T01:54:05.525Z,99.99
2016-11-14T01:55:06.214Z,99.99
2016-11-14T01:56:05.486Z,99.99
2016-11-14T01:57:05.366Z,99.99
2016-11-14T01:58:06.070Z,99.99
2016-11-14T01:59:05.388Z,99.99
2016-11-14T02:00:05.620Z,99.99
2016-11-14T02:01:05.862Z,99.99
2016-11-14T02:02:05.326Z,99.99
2016-11-14T02:03:05.967Z,99.99
2016-11-14T02:04:05.912Z,99.99
2016-11-14T02:05:05.463Z,99.99
2016-11-14T02:06:05.836Z,99.99
2016-11-14T02:07:05.169Z,99.99
2016-11-14T02:08:05.144Z,99.99
2016-11-14T02:09:05.120Z,99.99
2016-11-14T02:10:05.751Z,99.99
2016-11-14T02:11:05.717Z,99.99
2016-11-14T02:12:05.273Z,99.99
2016-11-14T02:13:05.252Z,99.99
2016-11-14T02:14:04.902Z,99.99
2016-11-14T02:15:04.952Z,99.99
2016-11-14T02:16:04.924Z,99.99
2016-11-14T02:17:04.923Z,99.99
2016-11-14T02:18:05.114Z,99.99
2016-11-14T02:19:05.503Z,99.99
2016-11-14T02:20:05.452Z,99.99
2016-11-14T02:21:05.453Z,99.99
2016-11-14T02:22:04.762Z,99.99
2016-11-14T02:23:05.399Z,99.99
2016-11-14T02:24:04.946Z,99.99
2016-11-14T02:25:05.355Z,99.99
2016-11-14T02:26:04.575Z,99.99
2016-11-14T02:27:05.285Z,99.99
2016-11-14T02:28:05.251Z,99.99
2016-11-14T02:29:04.568Z,99.99
2016-11-14T02:30:05.063Z,99.99
2016-11-14T02:31:04.511Z,99.99
2016-11-14T02:32:05.159Z,99.99
2016-11-14T02:33:04.452Z,99.99
2016-11-14T02:34:04.673Z,99.99
2016-11-14T02:35:04.915Z,99.99
2016-11-14T02:36:05.033Z,99.99
2016-11-14T02:37:04.588Z,99.99
2016-11-14T02:38:04.318Z,99.99
2016-11-14T02:39:04.976Z,99.99
2016-11-14T02:40:04.768Z,99.99
2016-11-14T02:41:04.885Z,99.99
2016-11-14T02:42:04.460Z,99.99
2016-11-14T02:43:04.187Z,99.99
2016-11-14T02:44:04.077Z,99.99
2016-11-14T02:45:04.042Z,99.99
2016-11-14T02:46:04.100Z,99.99
2016-11-14T02:47:04.077Z,99.99
2016-11-14T02:48:03.959Z,99.99
2016-11-14T02:49:04.052Z,99.99
2016-11-14T02:50:04.635Z,99.99
2016-11-14T02:51:04.200Z,99.99
2016-11-14T02:52:04.596Z,99.99
2016-11-14T02:53:04.549Z,99.99
2016-11-14T02:54:04.171Z,99.99
2016-11-14T02:55:04.091Z,99.99
2016-11-14T02:56:03.869Z,99.99
2016-11-14T02:57:04.030Z,99.99
2016-11-14T02:58:04.055Z,99.99
2016-11-14T02:59:03.745Z,99.99
2016-11-14T03:00:04.355Z,99.99
2016-11-14T03:01:03.913Z,99.99
2016-11-14T03:02:04.305Z,99.99
2016-11-14T03:03:03.963Z,99.99
2016-11-14T03:04:03.845Z,99.99
2016-11-14T03:05:03.482Z,99.99
2016-11-14T03:06:04.200Z,99.99
2016-11-14T03:07:04.177Z,99.99
2016-11-14T03:08:04.135Z,99.99
2016-11-14T03:09:03.459Z,99.99
2016-11-14T03:10:03.427Z,99.99
2016-11-14T03:11:04.060Z,99.99
2016-11-14T03:12:03.612Z,99.99
2016-11-14T03:13:03.263Z,99.99
2016-11-14T03:14:03.964Z,99.99
2016-11-14T03:15:03.284Z,99.99
2016-11-14T03:16:03.771Z,99.99
2016-11-14T03:17:03.232Z,99.99
2016-11-14T03:18:03.206Z,99.99
2016-11-14T03:19:03.172Z,99.99
2016-11-14T03:20:03.153Z,99.99
2016-11-14T03:21:03.369Z,99.99
2016-11-14T03:22:03.751Z,99.99
2016-11-14T03:23:03.721Z,99.99
2016-11-14T03:24:03.545Z,99.99
2016-11-14T03:25:03.671Z,99.99
2016-11-14T03:26:03.642Z,99.99
2016-11-14T03:27:03.194Z,99.99
2016-11-14T03:28:02.931Z,99.99
2016-11-14T03:29:03.421Z,99.99
2016-11-14T03:30:03.521Z,99.99
2016-11-14T03:31:03.488Z,99.99
2016-11-14T03:32:02.733Z,99.99
2016-11-14T03:33:03.044Z,99.99
2016-11-14T03:34:03.408Z,99.99
2016-11-14T03:35:03.376Z,99.99
2016-11-14T03:36:03.353Z,99.99
2016-11-14T03:37:03.313Z,99.99
2016-11-14T03:38:03.284Z,99.99
2016-11-14T03:39:02.634Z,99.99
2016-11-14T03:40:02.594Z,99.99
2016-11-14T03:41:03.225Z,99.99
2016-11-14T03:42:02.785Z,99.99
2016-11-14T03:43:02.760Z,99.99
2016-11-14T03:44:03.132Z,99.99
2016-11-14T03:45:02.375Z,99.99
2016-11-14T03:46:02.681Z,99.99
2016-11-14T03:47:02.415Z,99.99
2016-11-14T03:48:03.035Z,99.99
2016-11-14T03:49:02.586Z,99.99
2016-11-14T03:50:02.565Z,99.99
2016-11-14T03:51:02.936Z,99.99
2016-11-14T03:52:02.264Z,99.99
2016-11-14T03:53:02.474Z,99.99
2016-11-14T03:54:02.866Z,99.99
2016-11-14T03:55:02.525Z,99.99
2016-11-14T03:56:02.384Z,99.99
2016-11-14T03:57:02.796Z,99.99
2016-11-14T03:58:02.087Z,99.99
2016-11-14T03:59:02.309Z,99.99
2016-11-14T04:00:02.027Z,99.99
2016-11-14T04:01:02.652Z,99.99
2016-11-14T04:02:02.614Z,99.99
2016-11-14T04:03:02.246Z,99.99
2016-11-14T04:04:02.594Z,99.99
2016-11-14T04:05:01.959Z,99.99
2016-11-14T04:06:02.519Z,99.99
2016-11-14T04:07:01.931Z,99.99
2016-11-14T04:08:01.727Z,99.99
2016-11-14T04:09:01.708Z,99.99
2016-11-14T04:10:02.405Z,99.99
2016-11-14T04:11:02.376Z,99.99
2016-11-14T04:12:01.622Z,99.99
2016-11-14T04:13:02.347Z,99.99
2016-11-14T04:14:02.274Z,99.99
2016-11-14T04:15:02.163Z,99.99
2016-11-14T04:16:01.835Z,99.99
2016-11-14T04:17:02.222Z,99.99
2016-11-14T04:18:01.532Z,99.99
2016-11-14T04:19:02.154Z,99.99
2016-11-14T04:20:02.133Z,99.99
2016-11-14T04:21:01.445Z,99.99
2016-11-14T04:22:02.075Z,99.99
2016-11-14T04:23:02.064Z,99.99
2016-11-14T04:24:01.285Z,99.99
2016-11-14T04:25:01.333Z,99.99
2016-11-14T04:26:01.958Z,99.99
2016-11-14T04:27:01.913Z,99.99
2016-11-14T04:28:01.488Z,99.99
2016-11-14T04:29:01.237Z,99.99
2016-11-14T04:30:01.837Z,99.99
2016-11-14T04:31:01.826Z,99.99
2016-11-14T04:32:01.803Z,99.99
2016-11-14T04:33:01.771Z,99.99
2016-11-14T04:34:01.816Z,99.99
2016-11-14T04:35:01.053Z,99.99
2016-11-14T04:36:01.670Z,99.99
2016-11-14T04:37:01.655Z,99.99
2016-11-14T04:38:01.225Z,99.99
2016-11-14T04:39:01.596Z,99.99
2016-11-14T04:40:01.563Z,99.99
2016-11-14T04:41:00.882Z,99.99
2016-11-14T04:42:00.869Z,99.99
2016-11-14T04:43:01.078Z,99.99
2016-11-14T04:44:01.456Z,99.99
2016-11-14T04:45:01.026Z,99.99
2016-11-14T04:46:00.992Z,99.99
2016-11-14T04:47:00.717Z,99.99
2016-11-14T04:48:01.339Z,99.99
2016-11-14T04:49:01.306Z,99.99
2016-11-14T04:50:01.296Z,99.99
2016-11-14T04:51:01.276Z,99.99
2016-11-14T04:52:00.585Z,99.99
2016-11-14T04:53:00.796Z,99.99
2016-11-14T04:54:00.524Z,99.99
2016-11-14T04:55:00.506Z,99.99
2016-11-14T04:56:00.819Z,99.99
2016-11-14T04:57:01.092Z,99.99
2016-11-14T04:58:00.421Z,99.99
2016-11-14T04:59:00.399Z,99.99
2016-11-14T05:00:01.006Z,99.99
2016-11-14T05:01:00.998Z,99.99
2016-11-14T05:02:00.964Z,99.99
2016-11-14T05:03:00.914Z,99.99
2016-11-14T05:04:00.573Z,99.99
2016-11-14T05:05:00.867Z,99.99
2016-11-14T05:06:00.204Z,99.99
2016-11-14T05:07:00.823Z,99.99
2016-11-14T05:08:00.246Z,99.99
2016-11-14T05:09:00.348Z,99.99
2016-11-14T05:10:00.755Z,99.99
2016-11-14T05:11:00.048Z,99.99
2016-11-14T05:12:00.664Z,99.99
2016-11-14T05:13:00.240Z,99.99
2016-11-14T05:14:00.604Z,99.99
2016-11-14T05:14:59.936Z,99.99
2016-11-14T05:16:00.156Z,99.99
2016-11-14T05:16:59.882Z,99.99
2016-11-14T05:17:59.876Z,99.99
2016-11-14T05:19:00.085Z,99.99
2016-11-14T05:20:00.054Z,99.99
2016-11-14T05:21:00.437Z,99.99
2016-11-14T05:22:00.406Z,99.99
2016-11-14T05:23:00.365Z,99.99
2016-11-14T05:23:59.693Z,99.99
2016-11-14T05:25:00.336Z,99.99
2016-11-14T05:25:59.699Z,99.99
2016-11-14T05:27:00.253Z,99.99
2016-11-14T05:28:00.224Z,99.99
2016-11-14T05:29:00.259Z,99.99
2016-11-14T05:29:59.524Z,99.99
2016-11-14T05:31:00.222Z,99.99
2016-11-14T05:32:00.107Z,99.99
2016-11-14T05:33:00.103Z,99.99
2016-11-14T05:34:00.086Z,99.99
2016-11-14T05:35:00.056Z,99.99
2016-11-14T05:36:00.020Z,99.99
2016-11-14T05:36:59.564Z,99.99
2016-11-14T05:37:59.538Z,99.99
2016-11-14T05:38:59.922Z,99.99
2016-11-14T05:39:59.480Z,99.99
2016-11-14T05:40:59.922Z,99.99
2016-11-14T05:41:59.102Z,99.99
2016-11-14T05:42:59.155Z,99.99
2016-11-14T05:43:59.766Z,99.99
2016-11-14T05:44:59.340Z,99.99
2016-11-14T05:45:59.084Z,99.99
2016-11-14T05:46:59.284Z,99.99
2016-11-14T05:47:58.934Z,99.99
2016-11-14T05:48:59.648Z,99.99
2016-11-14T05:49:59.631Z,99.99
2016-11-14T05:50:58.934Z,99.99
2016-11-14T05:51:58.915Z,99.99
2016-11-14T05:52:59.123Z,99.99
2016-11-14T05:53:59.507Z,99.99
2016-11-14T05:54:59.572Z,99.99
2016-11-14T05:55:59.308Z,99.99
2016-11-14T05:56:59.001Z,99.99
2016-11-14T05:57:58.971Z,99.99
2016-11-14T05:58:58.700Z,99.99
2016-11-14T05:59:58.678Z,99.99
2016-11-14T06:00:59.172Z,99.99
2016-11-14T06:01:59.284Z,99.99
2016-11-14T06:02:58.837Z,99.99
2016-11-14T06:03:59.232Z,99.99
2016-11-14T06:04:59.188Z,99.99
2016-11-14T06:05:58.521Z,99.99
2016-11-14T06:06:58.583Z,99.99
2016-11-14T06:07:59.098Z,99.99
2016-11-14T06:08:59.098Z,99.99
2016-11-14T06:09:58.397Z,99.99
2016-11-14T06:10:59.015Z,99.99
2016-11-14T06:11:58.336Z,99.99
2016-11-14T06:12:58.826Z,99.99
2016-11-14T06:13:58.203Z,99.99
2016-11-14T06:14:58.265Z,99.99
2016-11-14T06:15:58.466Z,99.99
2016-11-14T06:16:58.204Z,99.99
2016-11-14T06:17:58.174Z,99.99
2016-11-14T06:18:58.184Z,99.99
2016-11-14T06:19:58.617Z,99.99
2016-11-14T06:20:58.738Z,99.99
2016-11-14T06:21:58.706Z,99.99
2016-11-14T06:22:58.540Z,99.99
2016-11-14T06:23:58.001Z,99.99
2016-11-14T06:24:58.627Z,99.99
2016-11-14T06:25:57.957Z,99.99
2016-11-14T06:26:58.560Z,99.99
2016-11-14T06:27:58.173Z,99.99
2016-11-14T06:28:57.773Z,99.99
2016-11-14T06:29:58.378Z,99.99
2016-11-14T06:30:57.896Z,99.99
2016-11-14T06:31:58.492Z,99.99
2016-11-14T06:32:57.993Z,99.99
2016-11-14T06:33:58.387Z,99.99
2016-11-14T06:34:58.349Z,99.99
2016-11-14T06:35:58.370Z,99.99
2016-11-14T06:36:58.133Z,99.99
2016-11-14T06:37:57.609Z,99.99
2016-11-14T06:38:57.576Z,99.99
2016-11-14T06:39:57.787Z,99.99
2016-11-14T06:40:57.776Z,99.99
2016-11-14T06:41:58.202Z,99.99
2016-11-14T06:42:58.131Z,99.99
2016-11-14T06:43:58.123Z,99.99
2016-11-14T06:44:57.648Z,99.99
2016-11-14T06:45:58.044Z,99.99
2016-11-14T06:46:57.994Z,99.99
2016-11-14T06:47:57.976Z,99.99
2016-11-14T06:48:57.946Z,99.99
2016-11-14T06:49:57.926Z,99.99
2016-11-14T06:50:57.872Z,99.99
2016-11-14T06:51:57.852Z,99.99
2016-11-14T06:52:57.101Z,99.99
2016-11-14T06:53:57.167Z,99.99
2016-11-14T06:54:57.034Z,99.99
2016-11-14T06:55:57.338Z,99.99
2016-11-14T06:56:57.727Z,99.99
2016-11-14T06:57:57.279Z,99.99
2016-11-14T06:58:57.682Z,99.99
2016-11-14T06:59:57.219Z,99.99
2016-11-14T07:00:57.596Z,99.99
2016-11-14T07:01:56.849Z,99.99
2016-11-14T07:02:56.814Z,99.99
2016-11-14T07:03:56.873Z,99.99
2016-11-14T07:04:56.843Z,99.99
2016-11-14T07:05:57.481Z,99.99
2016-11-14T07:06:56.793Z,99.99
2016-11-14T07:07:56.680Z,99.99
2016-11-14T07:08:56.728Z,99.99
2016-11-14T07:09:56.716Z,99.99
2016-11-14T07:10:57.343Z,99.99
2016-11-14T07:11:56.557Z,99.99
2016-11-14T07:12:56.858Z,99.99
2016-11-14T07:13:57.248Z,99.99
2016-11-14T07:14:56.562Z,99.99
2016-11-14T07:15:57.186Z,99.99
2016-11-14T07:16:57.144Z,99.99
2016-11-14T07:17:56.726Z,99.99
2016-11-14T07:18:56.363Z,99.99
2016-11-14T07:19:56.655Z,99.99
2016-11-14T07:20:56.389Z,99.99
2016-11-14T07:21:56.368Z,99.99
2016-11-14T07:22:56.271Z,99.99
2016-11-14T07:23:56.562Z,99.99
2016-11-14T07:24:56.911Z,99.99
2016-11-14T07:25:56.926Z,99.99
2016-11-14T07:26:56.883Z,99.99
2016-11-14T07:27:56.431Z,99.99
2016-11-14T07:28:56.406Z,99.99
2016-11-14T07:29:56.207Z,99.99
2016-11-14T07:30:56.748Z,99.99
2016-11-14T07:31:56.730Z,99.99
2016-11-14T07:32:56.697Z,99.99
2016-11-14T07:33:56.264Z,99.99
2016-11-14T07:34:56.248Z,99.99
2016-11-14T07:35:56.632Z,99.99
2016-11-14T07:36:55.987Z,99.99
2016-11-14T07:37:56.153Z,99.99
2016-11-14T07:38:55.811Z,99.99
2016-11-14T07:39:56.102Z,99.99
2016-11-14T07:40:56.081Z,99.99
2016-11-14T07:41:56.457Z,99.99
2016-11-14T07:42:55.797Z,99.99
2016-11-14T07:43:55.751Z,99.99
2016-11-14T07:44:56.374Z,99.99
2016-11-14T07:45:55.947Z,99.99
2016-11-14T07:46:56.335Z,99.99
2016-11-14T07:47:55.655Z,99.99
2016-11-14T07:48:55.849Z,99.99
2016-11-14T07:49:55.515Z,99.99
2016-11-14T07:51:55.533Z,99.99
2016-11-14T07:52:56.153Z,99.99
2016-11-14T07:53:55.786Z,99.99
2016-11-14T07:54:56.105Z,99.99
2016-11-14T07:55:55.720Z,99.99
2016-11-14T07:56:55.754Z,99.99
2016-11-14T07:57:56.078Z,99.99
2016-11-14T07:58:56.007Z,99.99
2016-11-14T07:59:55.570Z,99.99
2016-11-14T08:00:55.555Z,99.99
2016-11-14T08:01:55.526Z,99.99
2016-11-14T08:02:55.248Z,99.99
2016-11-14T08:03:55.874Z,99.99
2016-11-14T08:04:55.190Z,99.99
2016-11-14T08:05:55.166Z,99.99
2016-11-14T08:06:55.143Z,99.99
2016-11-14T08:07:55.771Z,99.99
2016-11-14T08:08:55.099Z,99.99
2016-11-14T08:09:55.310Z,99.99
2016-11-14T08:10:55.683Z,99.99
2016-11-14T08:11:55.522Z,99.99
2016-11-14T08:12:54.910Z,99.99
2016-11-14T08:13:54.953Z,99.99
2016-11-14T08:14:55.176Z,99.99
2016-11-14T08:15:55.155Z,99.99
2016-11-14T08:16:55.554Z,99.99
2016-11-14T08:17:55.501Z,99.99
2016-11-14T08:18:55.487Z,99.99
2016-11-14T08:19:55.467Z,99.99
2016-11-14T08:20:55.438Z,99.99
2016-11-14T08:21:55.397Z,99.99
2016-11-14T08:22:54.997Z,99.99
2016-11-14T08:23:54.708Z,99.99
2016-11-14T08:24:55.205Z,99.99
2016-11-14T08:25:54.900Z,99.99
2016-11-14T08:26:55.297Z,99.99
2016-11-14T08:27:54.847Z,99.99
2016-11-14T08:28:54.826Z,99.99
2016-11-14T08:29:54.812Z,99.53
2016-11-14T08:30:55.191Z,99.82
2016-11-14T08:31:54.428Z,99.99
2016-11-14T08:32:54.419Z,99.99
2016-11-14T08:33:55.115Z,99.99
2016-11-14T08:34:54.357Z,99.99
2016-11-14T08:35:54.415Z,99.99
2016-11-14T08:36:54.635Z,99.99
2016-11-14T08:37:54.383Z,99.99
2016-11-14T08:38:54.423Z,99.99
2016-11-14T08:39:54.260Z,99.99
2016-11-14T08:40:54.957Z,99.99
2016-11-14T08:41:54.933Z,99.99
2016-11-14T08:42:54.784Z,99.99
2016-11-14T08:43:54.249Z,99.72
2016-11-14T08:44:54.152Z,99.99
2016-11-14T08:45:54.849Z,98.73
2016-11-14T08:46:54.821Z,97.59
2016-11-14T08:47:54.805Z,95.31
2016-11-14T08:48:54.137Z,95.55
2016-11-14T08:49:54.043Z,95.69
2016-11-14T08:50:54.744Z,95.98
2016-11-14T08:51:54.091Z,94.42
2016-11-14T08:52:54.706Z,92.09
2016-11-14T08:53:54.050Z,91.28
2016-11-14T08:54:54.715Z,90.99
2016-11-14T08:55:54.653Z,90.61
2016-11-14T08:56:53.899Z,91.04
2016-11-14T08:57:54.630Z,91.89
2016-11-14T08:58:53.940Z,92.23
2016-11-14T08:59:53.930Z,92.52
2016-11-14T09:00:54.549Z,92.8
2016-11-14T09:01:54.433Z,91.52
2016-11-14T09:02:54.119Z,90.95
2016-11-14T09:03:53.853Z,91.33
2016-11-14T09:04:53.844Z,89.09
2016-11-14T09:05:53.818Z,87.24
2016-11-14T09:06:54.467Z,86.95
2016-11-14T09:07:54.446Z,85.1
2016-11-14T09:08:54.007Z,83.04
2016-11-14T09:09:53.671Z,82.51
2016-11-14T09:10:53.968Z,82.67
2016-11-14T09:11:53.637Z,81.47
2016-11-14T09:12:53.943Z,80.46
2016-11-14T09:13:53.689Z,79.6
2016-11-14T09:14:54.321Z,81.14
2016-11-14T09:15:54.316Z,80.9
2016-11-14T09:16:53.646Z,79.03
2016-11-14T09:17:54.260Z,78.41
2016-11-14T09:18:53.522Z,76.82
2016-11-14T09:19:54.253Z,75.2
2016-11-14T09:20:54.082Z,73.81
2016-11-14T09:21:53.804Z,74.01
2016-11-14T09:22:54.223Z,74.79
2016-11-14T09:23:53.773Z,75.07
2016-11-14T09:24:54.175Z,74.29
2016-11-14T09:25:53.751Z,73.24
2016-11-14T09:26:53.495Z,71.66
2016-11-14T09:27:53.393Z,71.75
2016-11-14T09:28:53.455Z,74.25
2016-11-14T09:29:54.095Z,75.13
2016-11-14T09:30:54.098Z,76.14
2016-11-14T09:31:53.341Z,74.31
2016-11-14T09:32:53.323Z,73.05
2016-11-14T09:33:53.325Z,73.49
2016-11-14T09:34:53.379Z,74.21
2016-11-14T09:35:53.363Z,74.63
2016-11-14T09:36:53.348Z,75.79
2016-11-14T09:37:53.866Z,76.71
2016-11-14T09:38:53.321Z,77.09
2016-11-14T09:39:53.321Z,76.9
2016-11-14T09:40:53.291Z,75.79
2016-11-14T09:41:53.281Z,73.58
2016-11-14T09:42:53.785Z,72.72
2016-11-14T09:43:53.848Z,72.44
2016-11-14T09:44:53.540Z,72.38
2016-11-14T09:45:53.225Z,73.17
2016-11-14T09:46:53.858Z,74.31
2016-11-14T09:47:53.446Z,74.37
2016-11-14T09:48:53.436Z,75.16
2016-11-14T09:49:53.811Z,76.52
2016-11-14T09:50:53.401Z,79.54
2016-11-14T09:51:53.797Z,80.87
2016-11-14T09:52:53.782Z,81.68
2016-11-14T09:53:53.756Z,82.07
2016-11-14T09:54:53.081Z,82.01
2016-11-14T09:55:53.311Z,81.82
2016-11-14T09:56:53.046Z,82.01
2016-11-14T09:57:52.950Z,82.1
2016-11-14T09:58:53.033Z,81.86
2016-11-14T09:59:52.912Z,81.58
2016-11-14T10:00:53.218Z,81.54
2016-11-14T10:01:53.628Z,80.82
2016-11-14T10:02:52.954Z,80.29
2016-11-14T10:03:53.575Z,81.2
2016-11-14T10:04:53.550Z,82.54
2016-11-14T10:05:53.531Z,83.83
2016-11-14T10:06:52.878Z,84.63
2016-11-14T10:07:53.093Z,84.25
2016-11-14T10:08:53.072Z,82.96
2016-11-14T10:09:52.806Z,81.67
2016-11-14T10:10:53.426Z,81.63
2016-11-14T10:11:52.778Z,81.58
2016-11-14T10:12:53.392Z,82.45
2016-11-14T10:13:52.746Z,82.54
2016-11-14T10:14:52.732Z,83.68
2016-11-14T10:15:52.936Z,84.44
2016-11-14T10:16:53.309Z,85.11
2016-11-14T10:17:52.893Z,85.06
2016-11-14T10:18:53.272Z,85.2
2016-11-14T10:19:52.848Z,84.82
2016-11-14T10:20:52.710Z,84.91
2016-11-14T10:21:53.234Z,85.01
2016-11-14T10:22:52.562Z,84.06
2016-11-14T10:23:53.165Z,83.2
2016-11-14T10:24:53.167Z,82.68
2016-11-14T10:25:52.495Z,82.2
2016-11-14T10:26:52.712Z,82.54
2016-11-14T10:27:52.442Z,82.54
2016-11-14T10:28:52.806Z,83.68
2016-11-14T10:29:52.399Z,83.68
2016-11-14T10:30:53.065Z,83.97
2016-11-14T10:31:52.363Z,83.49
2016-11-14T10:32:52.270Z,82.68
2016-11-14T10:33:52.834Z,81.35
2016-11-14T10:34:52.952Z,80.63
2016-11-14T10:35:52.284Z,80.87
2016-11-14T10:36:52.911Z,80.96
2016-11-14T10:37:52.892Z,80.96
2016-11-14T10:38:52.475Z,81.06
2016-11-14T10:39:52.202Z,80.72
2016-11-14T10:40:52.422Z,80.77
2016-11-14T10:41:52.802Z,81.25
2016-11-14T10:42:52.379Z,80.96
2016-11-14T10:43:52.775Z,80.77
2016-11-14T10:44:52.331Z,81.06
2016-11-14T10:45:52.323Z,80.96
2016-11-14T10:46:52.713Z,81.16
2016-11-14T10:47:52.034Z,80.77
2016-11-14T10:49:52.500Z,81.06
2016-11-14T10:50:52.033Z,81.44
2016-11-14T10:51:51.946Z,82.16
2016-11-14T10:52:52.589Z,82.45
2016-11-14T10:53:52.565Z,82.26
2016-11-14T10:54:51.798Z,82.45
2016-11-14T10:55:51.785Z,82.07
2016-11-14T10:56:51.861Z,81.63
2016-11-14T10:57:52.492Z,80.87
2016-11-14T10:58:52.435Z,81.01
2016-11-14T10:59:52.459Z,80.58
2016-11-14T11:00:51.753Z,80.4
2016-11-14T11:01:51.735Z,80.49
2016-11-14T11:02:51.725Z,80.4
2016-11-14T11:03:52.351Z,80.77
2016-11-14T11:04:51.605Z,80.96
2016-11-14T11:05:52.315Z,81.06
2016-11-14T11:06:52.281Z,80.96
2016-11-14T11:07:51.863Z,81.12
2016-11-14T11:08:51.584Z,82.35
2016-11-14T11:09:52.217Z,82.21
2016-11-14T11:10:52.203Z,82.5
2016-11-14T11:11:51.513Z,82.64
2016-11-14T11:12:51.512Z,82.54
2016-11-14T11:13:52.146Z,82.92
2016-11-14T11:14:51.955Z,82.07
2016-11-14T11:15:52.087Z,82.45
2016-11-14T11:16:52.055Z,82.54
2016-11-14T11:17:52.083Z,82.07
2016-11-14T11:18:51.282Z,81.87
2016-11-14T11:19:51.336Z,81.82
2016-11-14T11:20:51.318Z,81.25
2016-11-14T11:21:51.969Z,80.96
2016-11-14T11:22:51.516Z,80.11
2016-11-14T11:23:51.926Z,79.83
2016-11-14T11:24:51.899Z,80.83
2016-11-14T11:25:51.907Z,81.78
2016-11-14T11:26:51.435Z,81.97
2016-11-14T11:27:51.426Z,81.78
2016-11-14T11:28:51.817Z,81.25
2016-11-14T11:29:51.776Z,80.68
2016-11-14T11:30:51.607Z,80.58
2016-11-14T11:31:51.737Z,80.68
2016-11-14T11:32:51.583Z,80.68
2016-11-14T11:33:51.281Z,80.49
2016-11-14T11:34:51.700Z,81.12
2016-11-14T11:35:50.994Z,81.3
2016-11-14T11:36:51.616Z,81.68
2016-11-14T11:37:50.874Z,82.35
2016-11-14T11:38:51.586Z,82.82
2016-11-14T11:39:51.583Z,82.82
2016-11-14T11:40:50.882Z,82.73
2016-11-14T11:41:50.788Z,82.82
2016-11-14T11:42:51.351Z,82.16
2016-11-14T11:43:50.815Z,82.26
2016-11-14T11:44:51.041Z,82.26
2016-11-14T11:45:51.424Z,82.35
2016-11-14T11:46:50.993Z,82.35
2016-11-14T11:47:51.398Z,82.35
2016-11-14T11:48:50.627Z,82.54
2016-11-14T11:49:51.342Z,82.07
2016-11-14T11:50:51.313Z,82.92
2016-11-14T11:51:51.152Z,82.64
2016-11-14T11:52:51.282Z,82.35
2016-11-14T11:53:51.266Z,82.82
2016-11-14T11:54:50.816Z,82.64
2016-11-14T11:55:50.473Z,82.92
2016-11-14T11:56:51.194Z,82.82
2016-11-14T11:57:51.175Z,82.16
2016-11-14T11:58:50.727Z,81.92
2016-11-14T11:59:50.705Z,81.97
2016-11-14T12:00:51.103Z,82.2
2016-11-14T12:01:51.081Z,82.39
2016-11-14T12:02:50.403Z,82.35
2016-11-14T12:03:51.017Z,82.54
2016-11-14T12:04:50.875Z,83.01
2016-11-14T12:05:50.982Z,83.11
2016-11-14T12:06:50.312Z,82.45
2016-11-14T12:07:50.302Z,82.1
2016-11-14T12:08:50.773Z,82.2
2016-11-14T12:09:50.761Z,82.54
2016-11-14T12:10:50.480Z,82.73
2016-11-14T12:11:50.856Z,83.3
2016-11-14T12:12:50.180Z,83.97
2016-11-14T12:13:50.805Z,84.4
2016-11-14T12:14:50.802Z,84.49
2016-11-14T12:15:50.163Z,85.06
2016-11-14T12:16:50.096Z,84.97
2016-11-14T12:17:50.054Z,85.63
2016-11-14T12:18:50.700Z,85.63
2016-11-14T12:19:50.671Z,85.25
2016-11-14T12:20:50.654Z,85.06
2016-11-14T12:21:50.212Z,85.06
2016-11-14T12:22:50.594Z,84.91
2016-11-14T12:23:50.172Z,85.16
2016-11-14T12:24:50.155Z,84.97
2016-11-14T12:25:50.546Z,84.72
2016-11-14T12:26:49.842Z,84.82
2016-11-14T12:27:49.835Z,84.16
2016-11-14T12:28:49.807Z,84.34
2016-11-14T12:29:50.022Z,84.49
2016-11-14T12:30:49.775Z,84.72
2016-11-14T12:31:49.980Z,85.06
2016-11-14T12:32:49.714Z,84.97
2016-11-14T12:33:49.936Z,84.72
2016-11-14T12:34:50.334Z,85.06
2016-11-14T12:35:50.303Z,85.35
2016-11-14T12:36:49.628Z,85.44
2016-11-14T12:37:49.631Z,85.91
2016-11-14T12:38:50.212Z,86.11
2016-11-14T12:39:49.567Z,86.49
2016-11-14T12:40:50.200Z,86.49
2016-11-14T12:41:50.166Z,85.86
2016-11-14T12:42:49.489Z,86.05
2016-11-14T12:43:50.122Z,85.96
2016-11-14T12:44:50.107Z,86.49
2016-11-14T12:45:50.085Z,86.58
2016-11-14T12:46:49.629Z,86.68
2016-11-14T12:47:50.033Z,86.49
2016-11-14T12:48:49.596Z,86.58
2016-11-14T12:49:49.556Z,86.68
2016-11-14T12:50:49.969Z,87.24
2016-11-14T12:51:50.004Z,87.15
2016-11-14T12:52:49.267Z,86.77
2016-11-14T12:53:49.160Z,86.43
2016-11-14T12:54:49.128Z,86.24